Time;durP1;ratioP1;P1;durP2;ratioP2;P2;SDS_P1;SDS_P2;PMS_P1;PMS_P2;Temp;Humidity;BMP_temperature;BMP_pressure;BME280_temperature;BME280_humidity;BME280_pressure;Samples;Min_cycle;Max_cycle;Signal;HPM_P1;HPM_P2
2021/10/11 06:34:41;;;;;;;43.17;23.67;;;;;;;3.91;63.09;98764.80;1887862;76;22286;-59
2021/10/11 06:37:09;;;;;;;52.15;31.48;;;;;;;3.93;62.74;98762.73;1855855;77;20990;-59
2021/10/11 06:39:36;;;;;;;45.23;26.00;;;;;;;4.04;62.53;98762.73;1855746;77;21114;-61
2021/10/11 06:42:04;;;;;;;35.38;23.50;;;;;;;4.17;62.46;98755.60;1856022;77;20962;-61
2021/10/11 06:44:32;;;;;;;42.95;24.10;;;;;;;4.35;62.33;98752.82;1855713;77;21522;-61
2021/10/11 06:47:01;;;;;;;49.18;24.95;;;;;;;4.53;61.88;98750.84;1856022;77;20958;-61
2021/10/11 06:49:30;;;;;;;47.93;25.75;;;;;;;4.69;61.54;98751.95;1856165;77;20906;-59
2021/10/11 06:51:57;;;;;;;45.73;24.80;;;;;;;4.81;60.99;98750.09;1855793;77;22043;-57
2021/10/11 06:54:24;;;;;;;44.35;23.57;;;;;;;4.95;60.71;98740.81;1820167;77;21512;-61
2021/10/11 06:56:51;;;;;;;41.92;23.15;;;;;;;5.11;60.58;98737.41;1809120;79;21000;-60
2021/10/11 06:59:17;;;;;;;37.60;23.25;;;;;;;5.27;60.10;98736.67;1814500;79;20889;-57
2021/10/11 07:01:44;;;;;;;34.75;21.68;;;;;;;5.46;59.60;98739.38;1812350;78;21029;-59
2021/10/11 07:04:11;;;;;;;39.67;22.37;;;;;;;5.63;59.20;98727.98;1843453;77;21090;-58
2021/10/11 07:06:41;;;;;;;34.83;20.60;;;;;;;5.78;58.77;98724.23;1840019;77;20947;-59
2021/10/11 07:09:10;;;;;;;33.45;21.70;;;;;;;5.87;58.41;98718.31;1854750;77;20848;-59
2021/10/11 07:11:38;;;;;;;29.18;20.80;;;;;;;5.99;58.19;98720.36;1847394;77;20899;-59
2021/10/11 07:14:05;;;;;;;32.40;21.35;;;;;;;6.11;57.63;98720.27;1855232;77;21055;-60
2021/10/11 07:16:32;;;;;;;35.38;22.42;;;;;;;6.22;57.42;98723.90;1852695;77;21101;-59
2021/10/11 07:18:59;;;;;;;37.00;21.05;;;;;;;6.34;57.19;98720.58;1855156;77;20891;-59
2021/10/11 07:21:25;;;;;;;28.87;20.05;;;;;;;6.48;57.13;98715.19;1852843;77;20939;-59
2021/10/11 07:23:52;;;;;;;34.58;20.27;;;;;;;6.64;56.83;98721.02;1856222;77;20966;-59
2021/10/11 07:26:19;;;;;;;33.28;21.30;;;;;;;6.80;56.62;98723.62;1857229;77;20893;-61
2021/10/11 07:28:46;;;;;;;35.68;20.97;;;;;;;6.96;56.44;98726.45;1852024;77;21099;-58
2021/10/11 07:31:13;;;;;;;31.65;20.55;;;;;;;7.11;56.14;98719.97;1816177;77;21053;-59
2021/10/11 07:33:40;;;;;;;29.52;20.85;;;;;;;7.29;56.02;98714.29;1809962;77;20908;-61
2021/10/11 07:36:07;;;;;;;37.00;21.62;;;;;;;7.44;55.36;98718.45;1811749;77;20845;-61
2021/10/11 07:38:34;;;;;;;34.83;22.17;;;;;;;7.56;54.85;98717.73;1843542;77;21478;-59
2021/10/11 07:41:01;;;;;;;35.63;22.87;;;;;;;7.62;54.53;98706.08;1844301;77;21824;-57
2021/10/11 07:43:28;;;;;;;33.50;21.27;;;;;;;7.62;54.34;98706.08;1843939;77;20912;-59
2021/10/11 07:46:02;;;;;;;32.33;21.52;;;;;;;7.57;54.28;98710.02;1840772;77;21305;-59
2021/10/11 07:48:25;;;;;;;31.20;22.37;;;;;;;7.49;54.63;98709.14;1842639;77;20909;-61
2021/10/11 07:50:51;;;;;;;38.53;22.13;;;;;;;7.50;54.93;98704.91;1837643;77;20916;-61
2021/10/11 07:53:19;;;;;;;36.58;22.58;;;;;;;7.54;54.88;98701.19;1839695;77;21183;-61
2021/10/11 07:55:45;;;;;;;34.92;23.87;;;;;;;7.61;55.13;98705.79;1842321;77;21467;-60
2021/10/11 07:58:12;;;;;;;45.75;24.82;;;;;;;7.71;54.89;98702.41;1826445;77;21029;-61
2021/10/11 08:00:39;;;;;;;37.42;23.15;;;;;;;7.78;54.85;98697.14;1838908;77;20868;-62
2021/10/11 08:03:06;;;;;;;40.05;23.18;;;;;;;7.87;54.85;98696.13;1842099;77;20972;-60
2021/10/11 08:05:34;;;;;;;33.65;23.18;;;;;;;7.95;54.72;98688.47;1840755;77;21109;-63
2021/10/11 08:08:01;;;;;;;38.38;22.52;;;;;;;8.01;54.54;98686.62;1837237;77;20892;-61
2021/10/11 08:10:29;;;;;;;35.73;22.87;;;;;;;8.03;54.20;98689.31;1842512;77;20948;-59
2021/10/11 08:12:56;;;;;;;38.60;22.77;;;;;;;8.03;54.20;98681.31;1843401;77;20959;-59
2021/10/11 08:15:24;;;;;;;47.23;22.75;;;;;;;8.05;54.36;98672.55;1841334;77;21364;-60
2021/10/11 08:17:52;;;;;;;31.60;21.00;;;;;;;8.08;54.56;98677.34;1818595;77;21161;-64
2021/10/11 08:20:19;;;;;;;33.50;21.65;;;;;;;8.16;54.91;98671.53;1826740;77;21509;-60
2021/10/11 08:22:45;;;;;;;31.00;22.05;;;;;;;8.25;54.49;98673.98;1834381;77;21120;-60
2021/10/11 08:25:12;;;;;;;34.90;22.62;;;;;;;8.35;54.60;98669.79;1809625;79;21188;-58
2021/10/11 08:27:40;;;;;;;39.73;25.65;;;;;;;8.45;54.55;98665.84;1812157;77;20983;-59
2021/10/11 08:30:08;;;;;;;51.60;32.50;;;;;;;8.58;54.38;98665.36;1810639;79;21088;-61
2021/10/11 08:32:36;;;;;;;59.10;31.93;;;;;;;8.73;54.03;98662.76;1820798;77;20935;-61
2021/10/11 08:35:03;;;;;;;50.00;29.48;;;;;;;8.92;54.13;98659.89;1839350;77;21103;-61
2021/10/11 08:37:30;;;;;;;41.88;25.05;;;;;;;9.14;54.00;98659.12;1818950;79;20977;-63
2021/10/11 08:39:58;;;;;;;31.17;22.00;;;;;;;9.40;53.42;98654.08;1817408;77;20809;-64
2021/10/11 08:42:25;;;;;;;31.68;20.25;;;;;;;9.63;52.68;98652.77;1842442;77;21558;-63
2021/10/11 08:44:52;;;;;;;34.48;21.33;;;;;;;9.81;51.95;98646.86;1845542;77;21379;-60
2021/10/11 08:47:19;;;;;;;32.85;21.55;;;;;;;9.93;50.98;98647.92;1838696;77;20876;-64
2021/10/11 08:49:48;;;;;;;32.83;22.48;;;;;;;9.99;50.64;98651.65;1832918;77;20975;-59
2021/10/11 08:52:15;;;;;;;35.30;22.77;;;;;;;9.99;49.62;98642.81;1818082;79;20967;-61
2021/10/11 08:54:43;;;;;;;36.08;22.22;;;;;;;9.94;49.66;98641.51;1848594;77;21119;-61
2021/10/11 08:57:24;;;;;;;32.70;21.50;;;;;;;9.90;49.68;98642.56;1849911;77;20888;-61
2021/10/11 08:59:52;;;;;;;32.00;21.05;;;;;;;9.91;49.88;98644.71;1829206;77;20990;-60
2021/10/11 09:02:20;;;;;;;34.35;21.50;;;;;;;9.92;49.67;98638.27;1837020;77;20915;-59
2021/10/11 09:04:56;;;;;;;29.52;20.12;;;;;;;9.99;49.63;98637.45;1848148;77;21066;-60
2021/10/11 09:07:24;;;;;;;39.75;20.05;;;;;;;10.08;49.12;98626.49;1850412;77;21087;-59
2021/10/11 09:09:52;;;;;;;34.30;18.55;;;;;;;10.17;48.87;98618.98;1825045;77;20970;-59
2021/10/11 09:12:24;;;;;;;28.38;19.23;;;;;;;10.26;48.79;98620.58;1828735;77;20895;-59
2021/10/11 09:15:12;;;;;;;31.23;18.62;;;;;;;10.33;48.89;98610.38;1771139;80;21097;-61
2021/10/11 09:17:55;;;;;;;32.17;18.02;;;;;;;10.38;48.56;98602.33;1843769;77;20880;-59
2021/10/11 09:20:20;;;;;;;34.25;18.90;;;;;;;10.43;48.42;98602.84;1830928;77;21708;-61
2021/10/11 09:22:51;;;;;;;28.07;18.82;;;;;;;10.48;48.38;98598.25;1848623;77;20904;-60
2021/10/11 09:25:21;;;;;;;29.10;18.62;;;;;;;10.54;48.19;98591.00;1840706;77;20880;-62
2021/10/11 09:27:53;;;;;;;33.67;18.87;;;;;;;10.63;48.56;98592.02;1846450;77;20837;-60
2021/10/11 09:30:34;;;;;;;26.48;18.92;;;;;;;10.70;48.53;98583.14;1846420;77;20947;-61
2021/10/11 09:33:14;;;;;;;33.30;18.20;;;;;;;10.85;48.74;98582.54;1836422;77;21662;-60
2021/10/11 09:35:42;;;;;;;31.10;17.45;;;;;;;11.09;48.19;98571.13;1838687;77;20959;-61
2021/10/11 09:38:24;;;;;;;31.23;17.25;;;;;;;11.31;47.76;98567.45;1825477;77;21263;-61
2021/10/11 09:40:55;;;;;;;22.00;12.93;;;;;;;11.50;47.19;98554.95;1828244;77;20857;-59
2021/10/11 09:43:28;;;;;;;26.00;13.32;;;;;;;11.65;44.12;98552.94;1836607;77;20973;-60
2021/10/11 09:46:00;;;;;;;26.85;15.50;;;;;;;11.79;43.26;98547.73;1852808;77;22054;-59
2021/10/11 09:48:26;;;;;;;18.75;10.98;;;;;;;11.97;41.93;98542.96;1848824;77;20860;-60
2021/10/11 09:50:53;;;;;;;20.52;11.40;;;;;;;12.15;41.31;98538.74;1849846;77;21133;-64
2021/10/11 09:53:21;;;;;;;22.77;12.45;;;;;;;12.29;40.75;98536.95;1843219;77;20971;-61
2021/10/11 09:55:49;;;;;;;20.35;11.40;;;;;;;12.41;40.57;98536.53;1844087;77;20837;-63
2021/10/11 09:58:16;;;;;;;26.17;13.90;;;;;;;12.59;40.16;98545.95;1851453;77;21717;-60
2021/10/11 10:00:43;;;;;;;19.57;12.28;;;;;;;12.74;39.69;98544.95;1830452;77;20986;-58
2021/10/11 10:03:13;;;;;;;20.30;12.25;;;;;;;12.83;39.42;98539.17;1852244;77;21448;-58
2021/10/11 10:05:45;;;;;;;20.62;11.50;;;;;;;12.85;39.42;98532.95;1851612;77;21029;-60
2021/10/11 10:08:28;;;;;;;19.98;11.78;;;;;;;12.85;39.96;98528.92;1839816;77;21086;-60
2021/10/11 10:10:57;;;;;;;19.07;12.98;;;;;;;12.88;39.89;98524.31;1834222;77;21728;-62
2021/10/11 10:13:27;;;;;;;21.60;14.35;;;;;;;12.95;39.99;98530.91;1833741;77;21136;-60
2021/10/11 10:15:57;;;;;;;17.95;11.45;;;;;;;13.08;40.11;98516.49;1831296;77;21044;-59
2021/10/11 10:18:25;;;;;;;19.90;11.48;;;;;;;13.21;39.36;98516.56;1831454;78;20967;-62
2021/10/11 10:21:01;;;;;;;18.45;11.35;;;;;;;13.27;39.21;98506.50;1818300;79;20963;-61
2021/10/11 10:23:32;;;;;;;17.45;11.00;;;;;;;13.27;38.88;98499.23;1819003;79;21629;-59
2021/10/11 10:26:04;;;;;;;16.62;11.78;;;;;;;13.23;38.47;98492.86;1819105;79;20911;-61
2021/10/11 10:28:49;;;;;;;15.55;11.65;;;;;;;13.13;38.78;98494.36;1817872;79;20963;-57
2021/10/11 10:31:36;;;;;;;23.95;13.25;;;;;;;13.00;39.08;98481.08;1818335;79;26466;-58
2021/10/11 10:34:25;;;;;;;23.50;12.18;;;;;;;12.96;39.84;98484.11;1815234;79;21381;-60
2021/10/11 10:37:10;;;;;;;18.25;11.38;;;;;;;12.94;39.51;98477.43;1818455;77;21107;-58
2021/10/11 10:39:48;;;;;;;20.15;13.32;;;;;;;12.82;39.62;98471.16;1824662;77;21403;-62
2021/10/11 10:42:30;;;;;;;19.57;12.53;;;;;;;12.67;40.33;98470.04;1829821;78;20963;-60
2021/10/11 10:44:59;;;;;;;23.50;12.55;;;;;;;12.55;40.97;98474.28;1826006;78;20889;-58
2021/10/11 10:47:37;;;;;;;19.30;13.55;;;;;;;12.45;40.84;98465.02;1831104;78;20916;-60
2021/10/11 10:50:12;;;;;;;25.30;13.03;;;;;;;12.35;41.27;98465.41;1760316;81;21935;-59
2021/10/11 10:52:39;;;;;;;21.17;13.08;;;;;;;12.27;41.51;98460.68;1764577;81;20893;-60
2021/10/11 10:55:07;;;;;;;22.98;15.28;;;;;;;12.24;42.15;98454.56;1767220;79;21473;-58
2021/10/11 10:57:33;;;;;;;29.95;16.90;;;;;;;12.25;42.06;98451.31;1765679;80;21526;-60
2021/10/11 11:00:05;;;;;;;27.22;16.55;;;;;;;12.28;42.34;98440.00;1766705;80;21106;-61
2021/10/11 11:02:34;;;;;;;27.77;16.15;;;;;;;12.34;42.22;98442.31;1767493;80;21865;-59
2021/10/11 11:05:05;;;;;;;28.62;15.95;;;;;;;12.38;42.13;98437.72;1830506;78;20900;-58
2021/10/11 11:07:37;;;;;;;22.37;13.70;;;;;;;12.39;42.30;98438.75;1760107;81;20936;-61
2021/10/11 11:10:19;;;;;;;27.32;16.73;;;;;;;12.44;42.35;98440.57;1769687;81;20893;-58
2021/10/11 11:12:56;;;;;;;29.00;15.63;;;;;;;12.50;42.39;98438.08;1762097;81;20963;-61
2021/10/11 11:15:38;;;;;;;24.63;13.32;;;;;;;12.53;42.59;98424.06;1787914;79;21192;-61
2021/10/11 11:18:19;;;;;;;29.57;13.43;;;;;;;12.59;42.81;98425.58;1801747;79;20932;-57
2021/10/11 11:20:53;;;;;;;29.75;16.87;;;;;;;12.63;42.97;98423.35;1780171;79;20864;-58
2021/10/11 11:23:31;;;;;;;31.12;14.53;;;;;;;12.69;42.65;98420.86;1740096;82;20983;-60
2021/10/11 11:26:01;;;;;;;32.78;16.32;;;;;;;12.84;42.97;98411.72;1776714;79;20964;-57
2021/10/11 11:28:29;;;;;;;21.33;11.22;;;;;;;13.14;43.03;98409.10;1769262;81;21005;-59
2021/10/11 11:31:10;;;;;;;20.40;9.70;;;;;;;13.52;42.38;98405.94;1802772;79;21095;-61
2021/10/11 11:33:42;;;;;;;21.93;9.03;;;;;;;13.92;40.76;98400.84;1803501;79;21002;-59
2021/10/11 11:36:10;;;;;;;18.02;8.15;;;;;;;14.27;40.22;98400.06;1803616;79;20928;-59
2021/10/11 11:38:38;;;;;;;16.02;8.50;;;;;;;14.61;39.61;98390.13;1803937;79;21472;-61
2021/10/11 11:41:06;;;;;;;18.40;8.53;;;;;;;14.92;39.26;98395.82;1803830;79;21109;-61
2021/10/11 11:43:36;;;;;;;17.10;9.23;;;;;;;15.19;38.35;98388.67;1803508;79;20967;-58
2021/10/11 11:46:03;;;;;;;18.42;8.43;;;;;;;15.36;38.07;98388.73;1803508;79;21003;-62
2021/10/11 11:48:37;;;;;;;18.27;8.25;;;;;;;15.52;37.72;98383.98;1803629;79;21435;-59
2021/10/11 11:51:16;;;;;;;16.42;8.80;;;;;;;15.58;37.04;98390.05;1803693;79;20924;-65
2021/10/11 11:53:43;;;;;;;13.45;7.40;;;;;;;15.57;37.08;98377.64;1804296;79;21136;-67
2021/10/11 11:56:12;;;;;;;14.70;8.03;;;;;;;15.57;36.49;98377.64;1803627;79;20929;-61
2021/10/11 11:58:43;;;;;;;19.48;9.30;;;;;;;15.49;35.94;98377.87;1781099;79;20916;-61
2021/10/11 12:01:15;;;;;;;22.50;9.63;;;;;;;15.36;36.11;98376.58;1803562;79;20897;-61
2021/10/11 12:03:51;;;;;;;15.00;8.23;;;;;;;15.23;36.57;98375.59;1799830;79;20934;-62
2021/10/11 12:06:18;;;;;;;23.33;8.37;;;;;;;15.19;36.18;98371.13;1760724;81;21149;-62
2021/10/11 12:08:45;;;;;;;19.45;10.03;;;;;;;15.10;36.29;98371.65;1758265;81;20998;-62
2021/10/11 12:11:19;;;;;;;20.30;10.28;;;;;;;14.94;36.54;98380.13;1768437;81;21496;-59
2021/10/11 12:13:47;;;;;;;14.65;9.90;;;;;;;14.77;36.77;98375.97;1830377;77;20925;-57
2021/10/11 12:16:17;;;;;;;22.10;10.93;;;;;;;14.61;36.85;98369.36;1832651;78;21023;-64
2021/10/11 12:18:50;;;;;;;17.70;10.53;;;;;;;14.45;37.14;98364.09;1831227;78;21422;-59
2021/10/11 12:24:19;;;;;;;24.18;11.12;;;;;;;14.24;38.03;98357.56;1831382;78;21023;-58
2021/10/11 12:26:55;;;;;;;17.35;10.95;;;;;;;14.20;38.17;98359.28;1832019;78;20897;-61
2021/10/11 12:29:27;;;;;;;18.15;8.80;;;;;;;14.14;37.76;98358.59;1829256;77;21038;-58
2021/10/11 12:32:08;;;;;;;14.38;8.70;;;;;;;14.09;38.15;98353.85;1820987;77;21041;-59
2021/10/11 12:34:37;;;;;;;15.03;8.55;;;;;;;14.04;38.38;98349.92;1741468;81;20935;-61
2021/10/11 12:37:09;;;;;;;27.77;12.15;;;;;;;14.03;38.66;98344.31;1817282;78;21573;-60
2021/10/11 12:39:39;;;;;;;25.27;12.20;;;;;;;14.06;38.58;98343.14;1818424;79;20927;-59
2021/10/11 12:42:17;;;;;;;19.12;12.05;;;;;;;14.08;38.71;98332.08;1838203;77;21051;-60
2021/10/11 12:44:47;;;;;;;27.25;11.03;;;;;;;14.11;38.50;98337.64;1768503;81;21089;-60
2021/10/11 12:47:32;;;;;;;21.05;9.88;;;;;;;14.13;38.34;98335.44;1767183;81;21538;-61
2021/10/11 12:50:05;;;;;;;24.47;11.40;;;;;;;14.09;38.53;98328.27;1839273;78;21391;-59
2021/10/11 12:52:45;;;;;;;16.10;10.23;;;;;;;14.08;38.18;98326.15;1839571;78;21002;-59
2021/10/11 12:55:15;;;;;;;24.80;10.10;;;;;;;14.05;38.51;98323.25;1768366;81;20959;-58
2021/10/11 12:57:47;;;;;;;19.30;9.58;;;;;;;14.02;38.41;98317.12;1768107;81;21634;-58
2021/10/11 13:00:18;;;;;;;25.27;10.53;;;;;;;14.03;38.66;98311.98;1838980;78;20881;-60
2021/10/11 13:02:45;;;;;;;23.30;10.53;;;;;;;14.02;38.80;98311.73;1837707;78;21036;-59
2021/10/11 13:05:12;;;;;;;20.48;11.10;;;;;;;13.99;38.23;98300.24;1837816;78;21255;-59
2021/10/11 13:07:40;;;;;;;23.15;11.78;;;;;;;13.95;38.39;98301.93;1767810;81;20940;-61
2021/10/11 13:10:10;;;;;;;23.02;13.25;;;;;;;13.90;38.54;98305.53;1767250;81;21115;-62
2021/10/11 13:12:38;;;;;;;25.97;13.15;;;;;;;13.86;38.52;98301.06;1838667;78;21027;-63
2021/10/11 13:15:07;;;;;;;18.70;11.95;;;;;;;13.82;38.84;98308.16;1839646;78;20968;-60
2021/10/11 13:17:33;;;;;;;24.23;11.48;;;;;;;13.80;39.26;98301.75;1838965;78;21506;-61
